Time;durP1;ratioP1;P1;durP2;ratioP2;P2;SDS_P1;SDS_P2;PMS_P1;PMS_P2;Temp;Humidity;BMP_temperature;BMP_pressure;BME280_temperature;BME280_humidity;BME280_pressure;Samples;Min_cycle;Max_cycle;Signal;HPM_P1;HPM_P2
2022/06/27 00:01:29;;;;;;;10.10;6.90;;;;;;;19.08;78.14;100145.52;105125;1274;72705;-71
2022/06/27 00:04:17;;;;;;;11.50;7.20;;;;;;;19.05;78.06;100147.91;105048;1274;59762;-68
2022/06/27 00:07:05;;;;;;;10.50;7.00;;;;;;;19.04;77.99;100150.23;105348;1274;62242;-71
2022/06/27 00:09:53;;;;;;;11.30;7.20;;;;;;;19.01;78.48;100149.47;106224;1274;72400;-69
2022/06/27 00:12:41;;;;;;;10.40;6.80;;;;;;;18.99;77.99;100151.53;107069;1274;66677;-68
2022/06/27 00:15:30;;;;;;;10.40;6.30;;;;;;;18.97;78.15;100149.95;104971;1274;72986;-72
2022/06/27 00:18:18;;;;;;;13.10;7.20;;;;;;;18.97;78.24;100150.82;105021;1274;60299;-73
2022/06/27 00:21:06;;;;;;;10.40;6.50;;;;;;;19.00;77.75;100149.16;104857;1274;60456;-70
2022/06/27 00:23:53;;;;;;;12.20;6.70;;;;;;;19.06;77.57;100146.95;105032;1272;72104;-68
2022/06/27 00:26:41;;;;;;;10.00;6.50;;;;;;;19.11;76.95;100149.61;105198;1274;67929;-69
2022/06/27 00:29:29;;;;;;;11.80;6.30;;;;;;;19.17;76.28;100145.38;105246;1274;71841;-71
2022/06/27 00:32:18;;;;;;;9.70;5.70;;;;;;;19.23;75.70;100142.91;104973;1274;59656;-70
2022/06/27 00:35:08;;;;;;;9.90;5.90;;;;;;;19.30;74.80;100142.64;104853;1273;59688;-69
2022/06/27 00:37:56;;;;;;;10.00;6.00;;;;;;;19.42;74.11;100148.69;104866;1274;72130;-69
2022/06/27 00:40:44;;;;;;;10.80;5.80;;;;;;;19.50;73.33;100151.67;104844;1274;69576;-71
2022/06/27 00:43:33;;;;;;;10.00;5.30;;;;;;;19.62;72.19;100152.52;104833;1274;72894;-72
2022/06/27 00:46:21;;;;;;;10.40;5.70;;;;;;;19.77;70.97;100152.95;104902;1274;61316;-72
2022/06/27 00:49:09;;;;;;;9.60;4.90;;;;;;;19.90;70.08;100154.18;105173;1272;60554;-72
2022/06/27 00:51:58;;;;;;;10.10;5.80;;;;;;;20.03;69.44;100151.40;104946;1274;72710;-70
2022/06/27 00:54:49;;;;;;;12.10;5.30;;;;;;;20.12;68.89;100152.33;104966;1274;69091;-74
2022/06/27 00:57:37;;;;;;;10.90;5.70;;;;;;;20.18;68.51;100153.10;104926;1274;73396;-72
2022/06/27 01:00:25;;;;;;;10.30;5.80;;;;;;;20.24;68.14;100155.20;105164;1274;59704;-73
2022/06/27 01:03:13;;;;;;;10.90;5.80;;;;;;;20.31;67.87;100158.09;105177;1273;60986;-71
2022/06/27 01:06:04;;;;;;;11.00;5.40;;;;;;;20.33;67.79;100156.35;105147;1274;73861;-69
2022/06/27 01:08:53;;;;;;;9.30;6.00;;;;;;;20.35;67.62;100156.18;104884;1274;68686;-71
2022/06/27 01:11:40;;;;;;;9.60;5.50;;;;;;;20.33;67.69;100156.05;105212;1273;73014;-73
2022/06/27 01:14:29;;;;;;;10.90;6.70;;;;;;;20.27;68.11;100161.77;104940;1273;59882;-72
2022/06/27 01:17:17;;;;;;;13.30;6.50;;;;;;;20.19;68.61;100159.50;105152;1274;59707;-70
2022/06/27 01:20:07;;;;;;;8.90;5.40;;;;;;;20.10;68.68;100160.68;105006;1274;74503;-71
2022/06/27 01:22:55;;;;;;;9.70;5.00;;;;;;;20.11;67.97;100158.61;104954;1273;68822;-71
2022/06/27 01:25:44;;;;;;;9.80;5.20;;;;;;;20.17;67.68;100158.76;105201;1274;72854;-70
2022/06/27 01:28:32;;;;;;;9.90;5.20;;;;;;;20.27;66.87;100151.84;105230;1274;59644;-71
2022/06/27 01:31:20;;;;;;;9.10;5.70;;;;;;;20.37;66.52;100152.63;104953;1274;60622;-72
2022/06/27 01:34:10;;;;;;;10.90;5.60;;;;;;;20.45;66.04;100150.52;105100;1274;73627;-73
2022/06/27 01:37:00;;;;;;;10.40;5.20;;;;;;;20.51;65.58;100154.25;105305;1274;66843;-73
2022/06/27 01:40:07;;;;;;;11.80;5.70;;;;;;;20.57;65.23;100153.38;104984;1274;74200;-74
2022/06/27 01:42:56;;;;;;;9.70;5.40;;;;;;;20.57;65.19;100152.61;104972;1274;59817;-74
2022/06/27 01:45:44;;;;;;;9.60;5.60;;;;;;;20.57;65.15;100150.73;104867;1274;59723;-70
2022/06/27 01:48:34;;;;;;;11.20;5.70;;;;;;;20.51;65.28;100147.21;104864;1274;71198;-67
2022/06/27 01:51:23;;;;;;;8.60;5.30;;;;;;;20.46;65.59;100146.92;104932;1274;69374;-70
2022/06/27 01:54:14;;;;;;;10.90;5.40;;;;;;;20.40;65.86;100143.88;104758;1274;72878;-69
2022/06/27 01:57:04;;;;;;;9.80;5.50;;;;;;;20.36;65.51;100150.58;104738;1274;59744;-69
2022/06/27 01:59:55;;;;;;;9.70;5.50;;;;;;;20.35;65.66;100146.41;104837;1274;59913;-71
2022/06/27 02:02:44;;;;;;;9.60;6.00;;;;;;;20.34;65.33;100144.77;104820;1274;73607;-72
2022/06/27 02:05:33;;;;;;;8.40;5.00;;;;;;;20.34;65.60;100139.09;105093;1274;68276;-71
2022/06/27 02:08:22;;;;;;;10.20;5.70;;;;;;;20.33;65.51;100141.06;104854;1274;74733;-67
2022/06/27 02:11:10;;;;;;;9.50;5.80;;;;;;;20.33;65.59;100139.67;104908;1274;59681;-71
2022/06/27 02:13:59;;;;;;;9.40;5.70;;;;;;;20.31;65.61;100139.11;104830;1274;61570;-68
2022/06/27 02:16:47;;;;;;;9.30;5.40;;;;;;;20.24;65.96;100135.27;104784;1274;72646;-71
2022/06/27 02:19:35;;;;;;;9.90;6.00;;;;;;;20.16;66.47;100131.93;104989;1274;68985;-70
2022/06/27 02:22:25;;;;;;;9.50;6.00;;;;;;;20.06;67.22;100136.76;104544;1274;72869;-70
2022/06/27 02:25:12;;;;;;;11.40;5.80;;;;;;;19.97;67.59;100136.29;104781;1274;61567;-68
2022/06/27 02:28:01;;;;;;;9.70;6.00;;;;;;;19.86;68.35;100135.17;104913;1274;61356;-70
2022/06/27 02:30:49;;;;;;;10.70;6.10;;;;;;;19.76;68.91;100136.14;104951;1274;72050;-68
2022/06/27 02:33:41;;;;;;;11.60;6.30;;;;;;;19.64;69.37;100133.05;105052;1274;69435;-70
2022/06/27 02:36:38;;;;;;;9.90;6.10;;;;;;;19.55;69.84;100131.33;104873;1274;73258;-70
2022/06/27 02:39:29;;;;;;;11.00;6.10;;;;;;;19.44;70.93;100125.20;105006;1273;59796;-69
2022/06/27 02:42:20;;;;;;;12.20;6.30;;;;;;;19.34;71.47;100132.47;104956;1274;60272;-70
2022/06/27 02:45:09;;;;;;;11.30;6.30;;;;;;;19.24;72.08;100134.54;105039;1274;73118;-71
2022/06/27 02:47:58;;;;;;;10.00;6.20;;;;;;;19.14;72.62;100134.70;104957;1274;69362;-73
2022/06/27 02:50:51;;;;;;;10.70;6.50;;;;;;;19.07;72.86;100135.13;105154;1274;73004;-72
2022/06/27 02:54:18;;;;;;;9.80;6.40;;;;;;;19.03;73.35;100137.77;105042;1274;60330;-71
2022/06/27 02:57:36;;;;;;;11.30;6.40;;;;;;;18.98;73.36;100140.61;104959;1274;60523;-70
2022/06/27 03:00:32;;;;;;;10.40;6.50;;;;;;;18.96;73.76;100144.39;104873;1274;71817;-69
2022/06/27 03:03:24;;;;;;;10.70;6.00;;;;;;;18.94;73.95;100141.94;104898;1274;69415;-71
2022/06/27 03:06:14;;;;;;;11.70;6.30;;;;;;;18.95;74.00;100147.77;105382;1274;72638;-70
2022/06/27 03:09:02;;;;;;;11.80;6.30;;;;;;;18.94;74.08;100141.60;104967;1274;59631;-70
2022/06/27 03:11:50;;;;;;;10.80;6.20;;;;;;;18.94;74.27;100142.84;104859;1273;61522;-71
2022/06/27 03:14:38;;;;;;;10.90;7.00;;;;;;;18.95;74.39;100145.97;104945;1273;73830;-70
2022/06/27 03:17:25;;;;;;;11.50;6.80;;;;;;;18.95;74.64;100149.29;105047;1274;68965;-70
2022/06/27 03:20:32;;;;;;;11.30;6.80;;;;;;;18.96;74.75;100154.88;104988;1272;73009;-69
2022/06/27 03:23:30;;;;;;;13.30;6.40;;;;;;;18.98;75.00;100155.95;104901;1273;60741;-70
2022/06/27 03:26:19;;;;;;;11.70;6.30;;;;;;;19.01;75.39;100161.16;104952;1271;59511;-69
2022/06/27 03:29:09;;;;;;;11.30;6.40;;;;;;;19.06;75.67;100165.80;105113;1273;74757;-71
2022/06/27 03:31:58;;;;;;;11.40;7.10;;;;;;;19.12;75.56;100164.48;105063;1273;68140;-69
2022/06/27 03:34:47;;;;;;;11.50;6.70;;;;;;;19.16;75.46;100167.57;104922;1274;73060;-70
2022/06/27 03:37:40;;;;;;;11.00;6.70;;;;;;;19.24;75.19;100169.54;105129;1274;59715;-69
2022/06/27 03:40:28;;;;;;;11.10;7.00;;;;;;;19.33;75.07;100171.09;104893;1274;61017;-70
2022/06/27 03:43:17;;;;;;;10.10;6.60;;;;;;;19.40;75.14;100169.92;104971;1274;71999;-69
2022/06/27 03:46:06;;;;;;;10.90;7.10;;;;;;;19.46;74.79;100171.92;104865;1273;67567;-72
2022/06/27 03:52:03;;;;;;;11.20;6.50;;;;;;;19.63;74.44;100173.30;105171;1274;61271;-72
2022/06/27 03:54:51;;;;;;;13.40;6.90;;;;;;;19.71;73.64;100169.98;104920;1274;59705;-72
2022/06/27 03:57:48;;;;;;;10.50;6.60;;;;;;;19.83;73.09;100169.88;104977;1274;73207;-71
2022/06/27 04:00:36;;;;;;;10.40;6.70;;;;;;;19.99;72.47;100171.85;104969;1273;69525;-72
2022/06/27 04:03:26;;;;;;;12.30;7.00;;;;;;;20.13;71.68;100174.13;104904;1273;71788;-65
2022/06/27 04:06:15;;;;;;;11.60;7.20;;;;;;;20.29;70.83;100175.77;105176;1273;59774;-69
2022/06/27 04:09:03;;;;;;;9.60;6.50;;;;;;;20.44;70.16;100169.27;105105;1274;61826;-70
2022/06/27 04:11:51;;;;;;;11.30;6.50;;;;;;;20.62;69.54;100173.66;105126;1273;73280;-72
2022/06/27 04:14:59;;;;;;;12.10;6.40;;;;;;;20.81;68.95;100176.39;105081;1274;68062;-72
2022/06/27 04:18:07;;;;;;;10.80;6.20;;;;;;;21.00;67.98;100175.77;105478;1274;72837;-74
2022/06/27 04:21:13;;;;;;;11.70;6.60;;;;;;;21.18;67.02;100178.75;104957;1273;59562;-73
2022/06/27 04:24:17;;;;;;;11.10;6.50;;;;;;;21.40;65.99;100181.74;105530;1273;59532;-78
2022/06/27 04:27:16;;;;;;;10.00;5.70;;;;;;;21.62;64.90;100183.02;106354;1273;73155;-78
2022/06/27 04:30:06;;;;;;;10.60;6.60;;;;;;;21.87;64.16;100182.71;105726;1273;66788;-78
2022/06/27 04:32:54;;;;;;;10.60;5.70;;;;;;;22.17;62.63;100183.12;105783;1274;74031;-77
2022/06/27 04:35:42;;;;;;;10.40;6.10;;;;;;;22.50;61.46;100183.77;105794;1273;59866;-77
2022/06/27 04:38:31;;;;;;;9.70;5.50;;;;;;;22.85;59.73;100189.02;105327;1273;61237;-77
2022/06/27 04:41:29;;;;;;;12.30;6.70;;;;;;;23.22;58.80;100192.05;105126;1273;73298;-79
2022/06/27 04:44:18;;;;;;;10.10;5.70;;;;;;;23.63;57.48;100189.82;105075;1274;69630;-77
2022/06/27 04:47:08;;;;;;;12.20;5.60;;;;;;;24.13;55.92;100189.31;105036;1273;73042;-77
2022/06/27 04:50:22;;;;;;;9.00;5.20;;;;;;;24.78;54.01;100191.57;105138;1274;59668;-77
2022/06/27 04:53:11;;;;;;;9.50;5.40;;;;;;;25.33;52.76;100190.80;105076;1274;60513;-78
2022/06/27 04:55:59;;;;;;;11.50;5.80;;;;;;;25.91;50.53;100193.45;105181;1273;74925;-73
2022/06/27 04:58:47;;;;;;;9.60;5.60;;;;;;;26.47;48.82;100192.25;105445;1274;68171;-79
2022/06/27 05:01:38;;;;;;;10.70;5.30;;;;;;;27.01;47.29;100190.07;105169;1274;74492;-79
2022/06/27 05:04:32;;;;;;;10.60;5.10;;;;;;;27.49;45.69;100195.17;105160;1274;59766;-77
2022/06/27 05:07:22;;;;;;;12.50;5.40;;;;;;;28.00;44.64;100193.41;105213;1273;60944;-77
2022/06/27 05:10:10;;;;;;;8.00;4.70;;;;;;;28.45;43.07;100191.42;104966;1274;73657;-76
2022/06/27 05:12:59;;;;;;;10.00;4.70;;;;;;;28.95;42.05;100193.66;105241;1273;66827;-77
2022/06/27 05:15:47;;;;;;;16.10;5.40;;;;;;;29.44;40.30;100200.92;105566;1274;72187;-76
2022/06/27 05:18:35;;;;;;;10.50;4.70;;;;;;;29.84;39.59;100199.77;105129;1273;59781;-76
2022/06/27 05:21:44;;;;;;;10.40;4.60;;;;;;;30.42;39.04;100206.36;105185;1273;294582;-77
2022/06/27 05:24:32;;;;;;;11.30;4.80;;;;;;;30.99;37.25;100199.95;105102;1273;73315;-77
2022/06/27 05:27:20;;;;;;;10.00;4.40;;;;;;;31.54;35.98;100195.51;105109;1274;68781;-76
2022/06/27 05:30:09;;;;;;;8.40;4.30;;;;;;;32.14;34.46;100197.42;105436;1273;73602;-77
2022/06/27 05:32:57;;;;;;;12.40;4.20;;;;;;;32.74;33.52;100193.98;105237;1273;59800;-75
2022/06/27 05:35:46;;;;;;;12.00;4.00;;;;;;;33.17;32.45;100191.19;105392;1273;59643;-78
2022/06/27 05:38:34;;;;;;;9.00;4.40;;;;;;;33.75;31.60;100194.68;105280;1274;74760;-68
2022/06/27 05:41:22;;;;;;;9.90;3.80;;;;;;;34.51;30.37;100189.27;104833;1274;68108;-74
2022/06/27 05:44:14;;;;;;;12.20;4.10;;;;;;;35.15;29.03;100190.70;104959;1274;72930;-75
2022/06/27 05:47:03;;;;;;;7.70;3.50;;;;;;;35.44;27.76;100195.29;105158;1274;59679;-75
2022/06/27 05:50:05;;;;;;;10.60;3.70;;;;;;;35.88;26.81;100201.76;105629;1274;59546;-77
2022/06/27 05:52:56;;;;;;;9.80;3.50;;;;;;;36.09;26.49;100203.19;105520;1274;73514;-79
2022/06/27 05:55:50;;;;;;;9.70;3.60;;;;;;;36.33;25.96;100204.31;105117;1274;69427;-77
2022/06/27 05:58:38;;;;;;;8.00;3.20;;;;;;;36.58;25.98;100209.22;105294;1274;73379;-75
2022/06/27 06:01:27;;;;;;;7.50;3.50;;;;;;;36.81;25.63;100205.88;105202;1273;59676;-76
2022/06/27 06:04:16;;;;;;;7.40;3.00;;;;;;;37.05;25.60;100203.92;104961;1276;60791;-77
2022/06/27 06:07:05;;;;;;;9.90;3.20;;;;;;;37.38;25.19;100202.30;105878;1276;73869;-75
2022/06/27 06:09:53;;;;;;;7.90;3.10;;;;;;;37.39;25.16;100200.07;105684;1279;67293;-75
2022/06/27 06:12:41;;;;;;;7.80;3.30;;;;;;;37.35;25.45;100199.33;105460;1279;73802;-76
2022/06/27 06:15:31;;;;;;;9.50;2.90;;;;;;;37.73;25.02;100195.34;105632;1278;59650;-75
2022/06/27 06:18:23;;;;;;;8.00;3.20;;;;;;;38.12;24.19;100194.98;105647;1279;60561;-77
2022/06/27 06:21:12;;;;;;;8.10;3.10;;;;;;;38.61;23.63;100196.09;105580;1279;73699;-80
2022/06/27 06:24:01;;;;;;;8.70;2.80;;;;;;;39.29;23.21;100196.19;105571;1279;67771;-76
2022/06/27 06:26:52;;;;;;;8.60;3.10;;;;;;;39.89;22.58;100197.06;105552;1279;73440;-74
2022/06/27 06:29:41;;;;;;;9.10;2.50;;;;;;;40.26;21.20;100199.12;106537;1278;59609;-78
2022/06/27 06:32:31;;;;;;;9.00;3.20;;;;;;;40.20;20.74;100200.27;106112;1279;59668;-76
2022/06/27 06:35:19;;;;;;;8.80;2.70;;;;;;;40.26;20.55;100198.25;105598;1276;71676;-73
2022/06/27 06:38:08;;;;;;;7.40;2.80;;;;;;;40.64;20.17;100197.48;105819;1276;67991;-78
2022/06/27 06:40:57;;;;;;;8.00;2.30;;;;;;;40.53;19.81;100190.71;105258;1274;71785;-77
2022/06/27 06:43:46;;;;;;;9.50;2.50;;;;;;;40.58;19.92;100185.77;105607;1273;60442;-76
2022/06/27 06:46:57;;;;;;;7.90;2.50;;;;;;;40.73;20.03;100182.19;106303;1273;60999;-75
2022/06/27 06:49:56;;;;;;;6.40;2.40;;;;;;;40.92;20.18;100178.05;106131;1274;71692;-78
2022/06/27 06:52:52;;;;;;;8.50;2.70;;;;;;;40.81;19.64;100182.91;105963;1273;69614;-77
2022/06/27 06:55:39;;;;;;;8.10;2.60;;;;;;;40.81;20.04;100173.71;106703;1272;71628;-79
2022/06/27 06:58:27;;;;;;;7.30;2.80;;;;;;;41.01;20.07;100172.52;106930;1273;59765;-76
2022/06/27 07:01:15;;;;;;;9.20;3.00;;;;;;;40.95;19.80;100171.89;106278;1273;60240;-73
2022/06/27 07:04:04;;;;;;;9.30;2.80;;;;;;;41.07;20.16;100169.56;106470;1274;73465;-76
2022/06/27 07:06:53;;;;;;;7.80;2.60;;;;;;;41.68;19.72;100161.26;106172;1274;68023;-76
2022/06/27 07:09:41;;;;;;;9.80;2.50;;;;;;;42.08;18.75;100164.88;106008;1274;71541;-72
2022/06/27 07:12:33;;;;;;;8.10;2.80;;;;;;;42.06;18.38;100164.89;106568;1273;59774;-76
2022/06/27 07:15:22;;;;;;;11.00;2.80;;;;;;;42.34;18.43;100166.84;105887;1272;60308;-76
2022/06/27 07:18:10;;;;;;;6.00;2.40;;;;;;;42.61;17.99;100165.16;106698;1274;72023;-78
2022/06/27 07:20:59;;;;;;;9.10;2.50;;;;;;;42.85;17.80;100158.45;105348;1274;66815;-73
2022/06/27 07:23:53;;;;;;;6.60;2.30;;;;;;;42.95;17.88;100153.42;105389;1274;72538;-73
2022/06/27 07:26:41;;;;;;;8.00;2.60;;;;;;;43.25;17.68;100153.79;105177;1274;59650;-74
2022/06/27 07:29:30;;;;;;;11.50;2.50;;;;;;;43.61;17.32;100148.75;106426;1274;61866;-76
2022/06/27 07:32:19;;;;;;;13.80;2.70;;;;;;;43.64;17.13;100147.08;108027;1272;72260;-75
2022/06/27 07:35:12;;;;;;;10.80;2.20;;;;;;;43.57;16.94;100145.54;107869;1274;67022;-78
2022/06/27 07:38:02;;;;;;;7.00;2.00;;;;;;;43.64;17.11;100145.80;107972;1274;71419;-76
2022/06/27 07:40:50;;;;;;;8.60;2.10;;;;;;;43.79;16.64;100146.52;107048;1274;59681;-71
2022/06/27 07:43:38;;;;;;;7.50;2.40;;;;;;;43.65;16.54;100149.44;105535;1274;59553;-73
2022/06/27 07:46:27;;;;;;;8.60;2.30;;;;;;;43.54;16.57;100151.72;105279;1274;74837;-75
2022/06/27 07:49:15;;;;;;;7.90;2.20;;;;;;;43.34;16.95;100151.27;105172;1274;68087;-71
2022/06/27 07:52:03;;;;;;;8.70;2.30;;;;;;;43.17;17.16;100143.64;105176;1272;73526;-70
2022/06/27 07:54:51;;;;;;;8.20;2.80;;;;;;;43.37;16.87;100141.54;104981;1272;60045;-78
2022/06/27 07:57:43;;;;;;;9.40;3.10;;;;;;;43.40;16.80;100147.58;105488;1273;59647;-76
2022/06/27 08:00:31;;;;;;;10.90;4.40;;;;;;;43.43;17.07;100136.40;105085;1274;71948;-78
2022/06/27 08:06:28;;;;;;;10.60;4.40;;;;;;;42.72;16.67;100132.88;105339;1273;71743;-75
2022/06/27 08:09:21;;;;;;;9.40;4.30;;;;;;;42.62;17.19;100132.45;105170;1274;59774;-76
2022/06/27 08:12:10;;;;;;;10.30;4.20;;;;;;;42.55;17.33;100122.07;105512;1273;59823;-74
2022/06/27 08:14:59;;;;;;;8.50;4.10;;;;;;;41.99;17.68;100121.85;105325;1274;73334;-78
2022/06/27 08:17:47;;;;;;;9.80;4.40;;;;;;;41.39;18.41;100123.50;105202;1274;68244;-78
2022/06/27 08:20:37;;;;;;;10.50;3.80;;;;;;;41.48;18.85;100117.90;105236;1274;71286;-76
2022/06/27 08:23:26;;;;;;;10.20;3.30;;;;;;;41.83;18.38;100119.83;105258;1273;60253;-76
2022/06/27 08:26:15;;;;;;;10.20;3.10;;;;;;;41.79;18.48;100118.36;105530;1273;62067;-76
2022/06/27 08:29:05;;;;;;;7.00;3.30;;;;;;;40.79;18.96;100127.23;105543;1274;71809;-77
2022/06/27 08:31:53;;;;;;;8.50;3.10;;;;;;;40.21;20.18;100120.36;105810;1273;69602;-78
2022/06/27 08:34:41;;;;;;;9.40;2.80;;;;;;;40.02;20.51;100121.77;105543;1274;73027;-76
2022/06/27 08:37:28;;;;;;;8.70;3.10;;;;;;;39.84;20.56;100116.02;105181;1274;59749;-76
2022/06/27 08:40:19;;;;;;;10.50;3.10;;;;;;;40.19;20.68;100116.98;105236;1273;59606;-73
2022/06/27 08:43:12;;;;;;;7.40;2.80;;;;;;;40.48;20.32;100116.86;105084;1273;71165;-77
2022/06/27 08:46:00;;;;;;;8.80;3.30;;;;;;;40.53;19.81;100116.79;105410;1274;67839;-74
2022/06/27 08:48:49;;;;;;;7.80;3.10;;;;;;;40.65;20.02;100115.73;105190;1274;74287;-75
2022/06/27 08:51:36;;;;;;;7.70;2.90;;;;;;;40.46;20.45;100111.95;105270;1274;59630;-70
2022/06/27 08:54:28;;;;;;;10.60;3.20;;;;;;;40.06;20.76;100111.22;104997;1274;60574;-75
2022/06/27 08:57:18;;;;;;;9.00;3.00;;;;;;;40.16;20.90;100117.27;105351;1272;72107;-72
2022/06/27 09:00:10;;;;;;;9.40;3.50;;;;;;;40.18;20.74;100117.84;105624;1273;68853;-70
2022/06/27 09:02:58;;;;;;;7.60;3.10;;;;;;;40.35;20.95;100108.70;105788;1272;73574;-70
2022/06/27 09:06:07;;;;;;;8.60;3.10;;;;;;;40.32;20.74;100112.11;105110;1273;59659;-75
2022/06/27 09:09:08;;;;;;;10.80;3.20;;;;;;;40.11;20.38;100115.31;105605;1273;60223;-74
2022/06/27 09:12:05;;;;;;;10.00;3.40;;;;;;;39.26;21.39;100111.83;105629;1272;73105;-75
2022/06/27 09:14:53;;;;;;;8.20;3.50;;;;;;;39.20;21.78;100107.73;106354;1274;66951;-75
2022/06/27 09:17:42;;;;;;;8.90;3.40;;;;;;;39.51;22.01;100101.67;106664;1274;71441;-73
2022/06/27 09:20:59;;;;;;;9.20;3.20;;;;;;;39.93;21.69;100107.73;106439;1273;60213;-72
2022/06/27 09:24:01;;;;;;;8.40;2.80;;;;;;;40.32;21.04;100103.83;105827;1273;59521;-74
2022/06/27 09:26:49;;;;;;;8.10;2.90;;;;;;;39.99;20.86;100100.57;106134;1274;71688;-71
2022/06/27 09:29:38;;;;;;;8.80;3.00;;;;;;;39.78;20.70;100101.52;105777;1274;69463;-73
2022/06/27 09:32:27;;;;;;;6.50;2.80;;;;;;;39.50;21.20;100097.74;106556;1274;73075;-72
2022/06/27 09:35:31;;;;;;;9.10;2.70;;;;;;;38.77;21.70;100109.02;106490;1273;59767;-76
2022/06/27 09:38:21;;;;;;;8.10;2.80;;;;;;;38.78;21.76;100109.33;106239;1273;60664;-78
2022/06/27 09:41:12;;;;;;;9.50;3.00;;;;;;;38.51;21.53;100107.80;105869;1274;73021;-73
2022/06/27 09:44:10;;;;;;;6.80;3.00;;;;;;;38.74;22.23;100097.11;105093;1274;68531;-76
2022/06/27 09:47:19;;;;;;;7.30;2.80;;;;;;;38.91;22.88;100086.81;105248;1274;73594;-72
2022/06/27 09:50:09;;;;;;;8.60;3.10;;;;;;;39.29;22.12;100094.86;105377;1272;59689;-73
2022/06/27 09:52:59;;;;;;;8.00;3.00;;;;;;;39.34;21.90;100082.56;105151;1274;61429;-78
2022/06/27 09:55:48;;;;;;;6.70;2.50;;;;;;;39.47;22.14;100072.20;105293;1273;72017;-75
2022/06/27 09:58:38;;;;;;;7.20;3.00;;;;;;;39.22;21.54;100078.13;105219;1274;69130;-74
2022/06/27 10:01:49;;;;;;;6.60;2.90;;;;;;;39.04;22.03;100073.73;105208;1273;73103;-71
2022/06/27 10:04:38;;;;;;;8.80;3.10;;;;;;;38.21;22.47;100081.92;104720;1274;59737;-73
2022/06/27 10:07:26;;;;;;;6.70;3.10;;;;;;;37.04;24.05;100071.50;104863;1272;59567;-72
2022/06/27 10:10:14;;;;;;;8.60;3.20;;;;;;;37.02;24.45;100063.55;105053;1274;73196;-74
2022/06/27 10:13:04;;;;;;;8.90;3.50;;;;;;;36.65;25.16;100061.08;105272;1273;68117;-74
2022/06/27 10:15:53;;;;;;;8.40;3.60;;;;;;;36.19;25.97;100072.02;104945;1274;72923;-74
2022/06/27 10:19:14;;;;;;;8.20;3.70;;;;;;;36.38;25.90;100057.96;105074;1274;59793;-73
2022/06/27 10:22:02;;;;;;;8.50;3.40;;;;;;;36.86;25.33;100058.95;104805;1279;59703;-76
2022/06/27 10:24:50;;;;;;;8.10;3.20;;;;;;;37.51;24.15;100058.02;104506;1279;73093;-77
2022/06/27 10:27:38;;;;;;;7.40;2.80;;;;;;;37.97;23.07;100057.00;104608;1279;67478;-75
2022/06/27 10:30:53;;;;;;;7.50;3.10;;;;;;;37.99;22.14;100057.52;104603;1279;72811;-73
2022/06/27 10:33:47;;;;;;;7.20;2.70;;;;;;;37.81;21.18;100064.92;104956;1279;59750;-73
2022/06/27 10:36:35;;;;;;;8.20;2.50;;;;;;;38.02;20.89;100059.29;104592;1279;59811;-76
2022/06/27 10:39:23;;;;;;;7.20;2.40;;;;;;;38.07;20.56;100054.05;104600;1279;75126;-78
2022/06/27 10:42:48;;;;;;;7.20;2.40;;;;;;;38.09;20.64;100056.37;104568;1279;68655;-74
2022/06/27 10:45:35;;;;;;;8.10;2.40;;;;;;;38.08;20.20;100062.30;104632;1280;72855;-76
2022/06/27 10:48:38;;;;;;;6.30;2.40;;;;;;;38.32;20.19;100052.85;104774;1280;60052;-78
2022/06/27 10:51:34;;;;;;;7.10;2.50;;;;;;;38.18;20.45;100055.98;104632;1280;60767;-75
2022/06/27 10:54:36;;;;;;;10.00;2.50;;;;;;;37.21;21.32;100049.16;104508;1281;73014;-76
2022/06/27 10:57:38;;;;;;;8.40;2.30;;;;;;;36.90;21.69;100047.29;104527;1274;66682;-75
2022/06/27 11:00:40;;;;;;;7.90;2.30;;;;;;;37.16;20.60;100050.00;104970;1274;71316;-77
2022/06/27 11:03:35;;;;;;;8.40;2.60;;;;;;;37.35;20.83;100049.59;104861;1274;59634;-80
2022/06/27 11:06:23;;;;;;;6.70;2.60;;;;;;;37.35;21.15;100052.46;105594;1274;59637;-77
2022/06/27 11:09:10;;;;;;;7.40;2.60;;;;;;;37.22;21.12;100041.27;105199;1274;73271;-79
2022/06/27 11:12:00;;;;;;;11.30;2.50;;;;;;;36.92;21.61;100041.14;105046;1273;67497;-74
2022/06/27 11:14:58;;;;;;;7.80;2.60;;;;;;;36.73;22.07;100044.68;105097;1272;70571;-76
2022/06/27 11:17:45;;;;;;;8.00;2.40;;;;;;;36.02;22.69;100043.31;104928;1273;59598;-79
2022/06/27 11:20:33;;;;;;;7.70;2.60;;;;;;;35.66;23.30;100041.90;105083;1274;60631;-77
2022/06/27 11:23:25;;;;;;;7.60;2.90;;;;;;;34.79;24.07;100054.92;105017;1273;72073;-75
2022/06/27 11:26:13;;;;;;;6.90;2.70;;;;;;;34.48;24.71;100040.95;105262;1274;66870;-79
2022/06/27 11:32:22;;;;;;;10.00;2.70;;;;;;;34.14;25.64;100045.10;105329;1274;59700;-74
2022/06/27 11:35:11;;;;;;;8.60;3.10;;;;;;;34.16;25.93;100038.66;105271;1274;61158;-74
2022/06/27 11:37:59;;;;;;;7.90;2.90;;;;;;;33.89;26.00;100032.85;105053;1274;73006;-79
2022/06/27 11:41:02;;;;;;;8.00;3.20;;;;;;;33.29;27.30;100043.91;105077;1274;69072;-74
2022/06/27 11:44:02;;;;;;;9.40;3.30;;;;;;;32.57;28.47;100044.98;105147;1274;72995;-77
2022/06/27 11:46:51;;;;;;;8.50;3.10;;;;;;;32.17;29.49;100033.21;105370;1273;59760;-72
2022/06/27 11:49:40;;;;;;;9.00;3.10;;;;;;;32.15;29.56;100029.02;105769;1274;60613;-75
2022/06/27 11:52:45;;;;;;;7.60;3.10;;;;;;;32.17;29.02;100027.88;105055;1274;73576;-75
2022/06/27 11:55:34;;;;;;;11.60;3.00;;;;;;;32.02;29.07;100036.93;105329;1274;69573;-72
2022/06/27 11:58:21;;;;;;;8.30;3.20;;;;;;;31.84;29.52;100037.98;105116;1274;71563;-71
2022/06/27 12:01:09;;;;;;;8.80;2.60;;;;;;;31.68;29.44;100030.95;105126;1274;59829;-73
2022/06/27 12:04:15;;;;;;;8.40;2.80;;;;;;;31.49;27.95;100027.05;104992;1274;60376;-72
2022/06/27 12:07:08;;;;;;;6.60;2.70;;;;;;;31.35;28.49;100026.70;105185;1273;73618;-71
2022/06/27 12:09:56;;;;;;;7.10;3.00;;;;;;;31.29;29.59;100027.17;105158;1274;68095;-74
2022/06/27 12:12:45;;;;;;;7.20;2.70;;;;;;;31.23;29.86;100024.02;105076;1274;73184;-74
2022/06/27 12:15:35;;;;;;;7.10;2.60;;;;;;;31.03;29.96;100015.66;105302;1274;60848;-72
2022/06/27 12:18:36;;;;;;;7.10;2.30;;;;;;;30.99;29.89;100020.05;105391;1271;59534;-73
2022/06/27 12:21:24;;;;;;;9.40;2.80;;;;;;;30.95;29.48;100011.75;104983;1273;73762;-71
2022/06/27 12:24:13;;;;;;;7.80;2.90;;;;;;;30.91;29.64;100019.40;105273;1274;68224;-75
2022/06/27 12:27:01;;;;;;;7.40;3.30;;;;;;;30.85;29.38;100020.14;105172;1274;72124;-72
2022/06/27 12:29:48;;;;;;;7.20;3.00;;;;;;;30.74;29.32;100021.10;105020;1273;59676;-72
2022/06/27 12:32:37;;;;;;;7.70;2.80;;;;;;;30.67;29.86;100016.83;105276;1273;60246;-73
2022/06/27 12:35:25;;;;;;;6.80;2.70;;;;;;;30.76;29.77;100010.42;105153;1274;71695;-73
2022/06/27 12:38:13;;;;;;;8.00;3.00;;;;;;;30.75;29.56;100021.77;105136;1274;67033;-75
2022/06/27 12:41:15;;;;;;;6.60;2.90;;;;;;;30.83;29.55;100017.86;105097;1274;72908;-73
2022/06/27 12:44:04;;;;;;;7.80;2.60;;;;;;;30.90;29.41;100009.98;105127;1274;59754;-73
2022/06/27 12:46:53;;;;;;;8.00;2.70;;;;;;;31.03;28.88;100010.88;105314;1274;61054;-75
2022/06/27 12:49:44;;;;;;;7.50;3.10;;;;;;;31.00;29.73;100003.35;105348;1274;73846;-74
2022/06/27 12:52:32;;;;;;;8.60;3.70;;;;;;;31.01;31.09;100003.10;105400;1274;67363;-73
2022/06/27 12:55:20;;;;;;;6.60;3.30;;;;;;;31.00;31.69;99997.19;105105;1274;74431;-75
2022/06/27 12:58:08;;;;;;;10.40;3.20;;;;;;;30.99;31.41;99989.17;105054;1274;59627;-74
2022/06/27 13:00:57;;;;;;;8.80;3.10;;;;;;;31.03;31.52;99997.38;104933;1274;59564;-70
2022/06/27 13:03:45;;;;;;;7.90;2.80;;;;;;;30.96;32.06;99996.39;105042;1274;73525;-74
2022/06/27 13:06:34;;;;;;;6.60;2.90;;;;;;;31.02;32.04;99989.89;105367;1274;69462;-74
2022/06/27 13:09:21;;;;;;;7.30;3.10;;;;;;;31.00;31.67;99995.61;104951;1274;73572;-71
2022/06/27 13:12:11;;;;;;;8.90;2.70;;;;;;;30.95;31.45;99994.50;105058;1273;59691;-73
2022/06/27 13:14:58;;;;;;;8.30;3.00;;;;;;;30.95;31.74;99987.91;105046;1274;60548;-75